Time,TemperatureF,DewpointF,PressureIn,WindDirection,WindDirectionDegrees,WindSpeedMPH,WindSpeedGustMPH,Humidity,HourlyPrecipIn,Conditions,Clouds,dailyrainin,SoftwareType,DateUTC
2013-03-20 00:00:00,41.5,9.2,29.06,SW,220,12.5,15.4,26,0.00,,BKN,0.00,VWS V13.01,2013-03-20 04:00:00,
2013-03-20 00:05:00,41.2,8.9,29.06,SW,226,13.0,13.0,26,0.00,,BKN,0.00,VWS V13.01,2013-03-20 04:05:00,
2013-03-20 00:10:00,41.0,8.8,29.09,WSW,256,11.2,17.2,26,0.00,,BKN,0.00,VWS V13.01,2013-03-20 04:10:00,
2013-03-20 00:15:00,40.8,8.6,29.09,West,280,14.3,14.3,26,0.00,,BKN,0.00,VWS V13.01,2013-03-20 04:15:00,
2013-03-20 00:20:00,40.8,8.6,29.09,SW,227,11.2,11.2,26,0.00,,BKN,0.00,VWS V13.01,2013-03-20 04:20:00,
2013-03-20 00:25:00,40.6,8.4,29.09,WNW,290,4.9,7.8,26,0.00,,BKN,0.00,VWS V13.01,2013-03-20 04:25:00,
2013-03-20 00:30:00,40.3,8.1,29.09,West,275,6.7,11.6,26,0.00,,BKN,0.00,VWS V13.01,2013-03-20 04:30:00,
2013-03-20 00:35:00,40.1,8.0,29.09,WNW,299,7.8,8.3,26,0.00,,BKN,0.00,VWS V13.01,2013-03-20 04:35:00,
2013-03-20 00:40:00,39.7,7.7,29.09,West,276,4.0,6.9,26,0.00,,BKN,0.00,VWS V13.01,2013-03-20 04:40:00,
2013-03-20 00:45:00,39.7,7.7,29.09,WSW,252,14.8,14.8,26,0.00,,BKN,0.00,VWS V13.01,2013-03-20 04:45:00,
2013-03-20 00:50:00,39.9,7.8,29.09,NW,315,7.4,9.2,26,0.00,,BKN,0.00,VWS V13.01,2013-03-20 04:50:00,
2013-03-20 00:55:00,39.9,7.8,29.09,WSW,246,11.6,11.6,26,0.00,,BKN,0.00,VWS V13.01,2013-03-20 04:55:00,
2013-03-20 01:00:00,39.7,7.7,29.09,SW,220,5.4,9.2,26,0.00,,BKN,0.00,VWS V13.01,2013-03-20 05:00:00,
2013-03-20 01:05:00,39.2,7.2,29.09,WNW,291,4.9,8.7,26,0.00,,BKN,0.00,VWS V13.01,2013-03-20 05:05:00,
2013-03-20 01:10:00,38.8,6.9,29.09,NW,310,9.2,9.6,26,0.00,,BKN,0.00,VWS V13.01,2013-03-20 05:10:00,
2013-03-20 01:15:00,38.8,6.9,29.09,SSW,213,6.9,6.9,26,0.00,,BKN,0.00,VWS V13.01,2013-03-20 05:15:00,
2013-03-20 01:20:00,38.8,6.9,29.09,WNW,291,5.4,13.0,26,0.00,,BKN,0.00,VWS V13.01,2013-03-20 05:20:00,
2013-03-20 01:25:00,39.0,7.1,29.09,West,279,6.3,6.3,26,0.00,,BKN,0.00,VWS V13.01,2013-03-20 05:25:00,
2013-03-20 01:30:00,39.2,7.2,29.09,West,261,10.5,16.8,26,0.00,,BKN,0.00,VWS V13.01,2013-03-20 05:30:00,
2013-03-20 01:35:00,39.2,7.2,29.09,NW,304,21.0,21.0,26,0.00,,BKN,0.00,VWS V13.01,2013-03-20 05:35:00,
2013-03-20 01:40:00,39.0,7.1,29.09,West,267,5.8,6.3,26,0.00,,BKN,0.00,VWS V13.01,2013-03-20 05:40:00,
2013-03-20 01:45:00,38.7,6.7,29.09,NW,307,9.2,9.2,26,0.00,,BKN,0.00,VWS V13.01,2013-03-20 05:45:00,
2013-03-20 01:50:00,38.7,6.7,29.09,West,270,7.8,7.8,26,0.00,,BKN,0.00,VWS V13.01,2013-03-20 05:50:00,
2013-03-20 01:55:00,38.8,6.9,29.09,SSW,210,10.1,11.2,26,0.00,,BKN,0.00,VWS V13.01,2013-03-20 05:55:00,
2013-03-20 02:00:00,38.7,6.7,29.09,West,272,7.8,7.8,26,0.00,,BKN,0.00,VWS V13.01,2013-03-20 06:00:00,
2013-03-20 02:05:00,38.5,6.6,29.09,NW,325,4.0,5.4,26,0.00,,BKN,0.00,VWS V13.01,2013-03-20 06:05:00,
2013-03-20 02:10:00,38.3,6.4,29.09,SW,229,6.9,6.9,26,0.00,,BKN,0.00,VWS V13.01,2013-03-20 06:10:00,
2013-03-20 02:15:00,38.1,6.3,29.09,WSW,258,6.3,6.3,26,0.00,,BKN,0.00,VWS V13.01,2013-03-20 06:15:00,
2013-03-20 02:20:00,37.9,6.1,29.09,NW,307,6.7,6.9,26,0.00,,BKN,0.00,VWS V13.01,2013-03-20 06:20:00,
2013-03-20 02:25:00,38.1,6.3,29.09,WSW,257,7.8,7.8,26,0.00,,BKN,0.00,VWS V13.01,2013-03-20 06:25:00,
2013-03-20 02:30:00,37.9,6.1,29.09,West,279,4.0,4.9,26,0.00,,BKN,0.00,VWS V13.01,2013-03-20 06:30:00,
2013-03-20 02:35:00,37.8,6.0,29.09,WSW,240,6.3,6.3,26,0.00,,BKN,0.00,VWS V13.01,2013-03-20 06:35:00,
2013-03-20 02:40:00,37.6,5.8,29.09,WSW,247,4.9,5.8,26,0.00,,BKN,0.00,VWS V13.01,2013-03-20 06:40:00,
2013-03-20 02:45:00,37.4,5.7,29.09,SW,236,7.4,16.3,26,0.00,,BKN,0.00,VWS V13.01,2013-03-20 06:45:00,
2013-03-20 02:50:00,37.6,5.8,29.09,WSW,258,5.4,11.0,26,0.00,,BKN,0.00,VWS V13.01,2013-03-20 06:50:00,
2013-03-20 02:55:00,37.4,5.7,29.12,West,262,6.3,10.1,26,0.00,,BKN,0.00,VWS V13.01,2013-03-20 06:55:00,
2013-03-20 03:00:00,37.4,5.7,29.12,SW,223,3.6,4.0,26,0.00,,BKN,0.00,VWS V13.01,2013-03-20 07:00:00,
2013-03-20 03:04:00,37.2,5.5,29.12,WNW,286,5.4,15.9,26,0.00,,BKN,0.00,VWS V13.01,2013-03-20 07:04:00,
2013-03-20 03:09:00,37.4,5.7,29.12,WSW,257,5.8,9.6,26,0.00,,BKN,0.00,VWS V13.01,2013-03-20 07:09:00,
2013-03-20 03:14:00,37.2,5.5,29.12,West,271,6.3,9.6,26,0.00,,BKN,0.00,VWS V13.01,2013-03-20 07:14:00,
2013-03-20 03:19:00,37.2,5.5,29.12,West,277,4.0,6.7,26,0.00,,BKN,0.00,VWS V13.01,2013-03-20 07:19:00,
2013-03-20 03:24:00,36.9,5.2,29.09,WSW,240,7.4,10.5,26,0.00,,BKN,0.00,VWS V13.01,2013-03-20 07:24:00,
2013-03-20 03:29:00,36.9,5.2,29.09,SW,219,5.4,12.1,26,0.00,,BKN,0.00,VWS V13.01,2013-03-20 07:29:00,
2013-03-20 03:34:00,36.9,5.2,29.09,WSW,255,4.9,9.2,26,0.00,,BKN,0.00,VWS V13.01,2013-03-20 07:34:00,
2013-03-20 03:39:00,36.9,5.2,29.09,West,261,5.4,11.2,26,0.00,,BKN,0.00,VWS V13.01,2013-03-20 07:39:00,
2013-03-20 03:44:00,36.9,5.2,29.09,SW,232,4.0,6.9,26,0.00,,BKN,0.00,VWS V13.01,2013-03-20 07:44:00,
2013-03-20 03:49:00,36.7,5.0,29.09,WSW,258,5.8,9.6,26,0.00,,BKN,0.00,VWS V13.01,2013-03-20 07:49:00,
2013-03-20 03:54:00,36.5,5.7,29.09,SW,222,4.5,8.7,27,0.00,,BKN,0.00,VWS V13.01,2013-03-20 07:54:00,
2013-03-20 03:59:00,36.1,5.4,29.09,West,280,13.9,13.9,27,0.00,,BKN,0.00,VWS V13.01,2013-03-20 07:59:00,
2013-03-20 04:04:00,36.3,5.6,29.09,WSW,250,9.2,9.2,27,0.00,,BKN,0.00,VWS V13.01,2013-03-20 08:04:00,
2013-03-20 04:09:00,36.3,5.6,29.09,WNW,289,3.6,5.4,27,0.00,,BKN,0.00,VWS V13.01,2013-03-20 08:09:00,
2013-03-20 04:14:00,36.1,5.4,29.09,SW,233,5.4,6.9,27,0.00,,BKN,0.00,VWS V13.01,2013-03-20 08:14:00,
2013-03-20 04:19:00,36.0,5.2,29.09,WNW,300,7.4,7.4,27,0.00,,BKN,0.00,VWS V13.01,2013-03-20 08:19:00,
2013-03-20 04:24:00,36.1,5.4,29.09,SW,221,8.7,10.1,27,0.00,,BKN,0.00,VWS V13.01,2013-03-20 08:24:00,
2013-03-20 04:29:00,36.3,5.6,29.09,WNW,289,7.8,8.3,27,0.00,,BKN,0.00,VWS V13.01,2013-03-20 08:29:00,
2013-03-20 04:34:00,36.5,4.9,29.09,SW,215,6.7,9.6,26,0.00,,BKN,0.00,VWS V13.01,2013-03-20 08:34:00,
2013-03-20 04:39:00,36.5,5.7,29.09,West,272,4.9,14.3,27,0.00,,BKN,0.00,VWS V13.01,2013-03-20 08:39:00,
2013-03-20 04:44:00,36.1,5.4,29.09,WNW,292,10.1,13.0,27,0.00,,BKN,0.00,VWS V13.01,2013-03-20 08:44:00,
2013-03-20 04:49:00,36.3,5.6,29.09,WSW,246,8.3,13.9,27,0.00,,BKN,0.00,VWS V13.01,2013-03-20 08:49:00,
2013-03-20 04:54:00,36.3,7.1,29.09,WNW,300,4.5,8.3,29,0.00,,BKN,0.00,VWS V13.01,2013-03-20 08:54:00,
2013-03-20 04:59:00,36.1,7.0,29.09,SW,219,2.7,12.1,29,0.00,,BKN,0.00,VWS V13.01,2013-03-20 08:59:00,
2013-03-20 05:04:00,36.0,6.8,29.09,West,268,3.1,6.3,29,0.00,,BKN,0.00,VWS V13.01,2013-03-20 09:04:00,
2013-03-20 05:09:00,35.8,6.7,29.09,West,270,6.3,8.3,29,0.00,,BKN,0.00,VWS V13.01,2013-03-20 09:09:00,
2013-03-20 05:14:00,35.6,6.5,29.09,West,261,4.9,11.2,29,0.00,,BKN,0.00,VWS V13.01,2013-03-20 09:14:00,
2013-03-20 05:19:00,35.4,6.3,29.09,West,277,8.3,12.5,29,0.00,,BKN,0.00,VWS V13.01,2013-03-20 09:19:00,
2013-03-20 05:24:00,35.8,6.7,29.09,West,272,4.9,8.3,29,0.00,,BKN,0.00,VWS V13.01,2013-03-20 09:24:00,
2013-03-20 05:29:00,35.8,6.7,29.09,WSW,239,5.4,6.3,29,0.00,,BKN,0.00,VWS V13.01,2013-03-20 09:29:00,
2013-03-20 05:34:00,35.6,6.5,29.09,West,272,8.3,8.7,29,0.00,,BKN,0.00,VWS V13.01,2013-03-20 09:34:00,
2013-03-20 05:39:00,35.4,6.3,29.09,West,271,4.9,9.6,29,0.00,,BKN,0.00,VWS V13.01,2013-03-20 09:39:00,
2013-03-20 05:44:00,35.4,6.3,29.09,West,281,10.5,10.5,29,0.00,,BKN,0.00,VWS V13.01,2013-03-20 09:44:00,
2013-03-20 05:49:00,35.6,6.5,29.09,NW,322,5.4,6.7,29,0.00,,BKN,0.00,VWS V13.01,2013-03-20 09:49:00,
2013-03-20 05:54:00,35.6,6.5,29.09,West,276,2.7,4.0,29,0.00,,BKN,0.00,VWS V13.01,2013-03-20 09:54:00,
2013-03-20 05:59:00,35.4,6.3,29.09,West,278,3.6,6.3,29,0.00,,BKN,0.00,VWS V13.01,2013-03-20 09:59:00,
2013-03-20 06:04:00,35.2,6.2,29.09,SW,232,3.6,4.9,29,0.00,,BKN,0.00,VWS V13.01,2013-03-20 10:04:00,
2013-03-20 06:09:00,34.9,5.9,29.09,SSW,207,3.1,5.8,29,0.00,,BKN,0.00,VWS V13.01,2013-03-20 10:09:00,
2013-03-20 06:14:00,34.9,5.9,29.09,SW,225,5.8,6.9,29,0.00,,BKN,0.00,VWS V13.01,2013-03-20 10:14:00,
2013-03-20 06:19:00,35.1,6.0,29.09,SW,224,4.0,6.7,29,0.00,,BKN,0.00,VWS V13.01,2013-03-20 10:19:00,
2013-03-20 06:24:00,34.9,5.9,29.12,West,277,3.6,5.4,29,0.00,,BKN,0.00,VWS V13.01,2013-03-20 10:24:00,
2013-03-20 06:29:00,34.9,5.9,29.12,NNW,339,0.0,6.3,29,0.00,,BKN,0.00,VWS V13.01,2013-03-20 10:29:00,
2013-03-20 06:34:00,34.9,5.9,29.12,WNW,283,5.4,5.4,29,0.00,,BKN,0.00,VWS V13.01,2013-03-20 10:34:00,
2013-03-20 06:39:00,34.9,5.9,29.12,West,280,4.5,4.9,29,0.00,,BKN,0.00,VWS V13.01,2013-03-20 10:39:00,
2013-03-20 06:44:00,34.7,5.7,29.12,SW,218,6.9,12.1,29,0.00,,BKN,0.00,VWS V13.01,2013-03-20 10:44:00,
2013-03-20 06:49:00,34.9,5.9,29.12,SSW,212,5.8,6.7,29,0.00,,BKN,0.00,VWS V13.01,2013-03-20 10:49:00,
2013-03-20 06:54:00,34.9,5.9,29.12,WSW,257,4.9,5.4,29,0.00,,BKN,0.00,VWS V13.01,2013-03-20 10:54:00,
2013-03-20 06:59:00,34.9,5.9,29.12,WSW,248,3.6,3.6,29,0.00,,BKN,0.00,VWS V13.01,2013-03-20 10:59:00,
2013-03-20 07:04:00,34.5,6.3,29.12,WSW,248,2.7,3.1,30,0.00,,BKN,0.00,VWS V13.01,2013-03-20 11:04:00,
2013-03-20 07:09:00,34.3,6.1,29.12,WSW,243,4.0,4.5,30,0.00,,BKN,0.00,VWS V13.01,2013-03-20 11:09:00,
2013-03-20 07:14:00,34.2,6.0,29.12,WSW,241,4.0,4.0,30,0.00,,BKN,0.00,VWS V13.01,2013-03-20 11:14:00,
2013-03-20 07:19:00,34.0,5.8,29.12,WSW,257,3.1,3.6,30,0.00,,BKN,0.00,VWS V13.01,2013-03-20 11:19:00,
2013-03-20 07:24:00,33.8,5.7,29.12,West,269,6.9,6.9,30,0.00,,BKN,0.00,VWS V13.01,2013-03-20 11:24:00,
2013-03-20 07:29:00,33.8,5.7,29.12,SW,224,3.1,4.9,30,0.00,,BKN,0.00,VWS V13.01,2013-03-20 11:29:00,
2013-03-20 07:34:00,33.8,5.7,29.12,SW,232,4.9,5.4,30,0.00,,BKN,0.00,VWS V13.01,2013-03-20 11:34:00,
2013-03-20 07:39:00,34.0,5.8,29.12,SW,228,5.8,5.8,30,0.00,,BKN,0.00,VWS V13.01,2013-03-20 11:39:00,
2013-03-20 07:44:00,34.3,6.1,29.12,West,262,6.7,6.7,30,0.00,,BKN,0.00,VWS V13.01,2013-03-20 11:44:00,
2013-03-20 07:49:00,34.3,6.1,29.12,WSW,246,6.9,6.9,30,0.00,,BKN,0.00,VWS V13.01,2013-03-20 11:49:00,
2013-03-20 07:54:00,34.5,6.3,29.12,WSW,256,6.7,8.7,30,0.00,,BKN,0.00,VWS V13.01,2013-03-20 11:54:00,
2013-03-20 07:59:00,35.1,6.0,29.12,WSW,252,10.5,10.5,29,0.00,,BKN,0.00,VWS V13.01,2013-03-20 11:59:00,
2013-03-20 08:04:00,35.4,6.3,29.12,SW,222,4.9,4.9,29,0.00,,BKN,0.00,VWS V13.01,2013-03-20 12:04:00,
2013-03-20 08:09:00,35.6,6.5,29.12,West,279,4.9,5.4,29,0.00,,BKN,0.00,VWS V13.01,2013-03-20 12:09:00,
2013-03-20 08:14:00,35.8,6.7,29.12,WSW,246,4.0,8.3,29,0.00,,BKN,0.00,VWS V13.01,2013-03-20 12:14:00,
2013-03-20 08:19:00,36.1,7.0,29.12,WSW,258,4.5,6.3,29,0.00,,BKN,0.00,VWS V13.01,2013-03-20 12:19:00,
2013-03-20 08:24:00,36.5,7.3,29.12,SSW,196,6.3,6.7,29,0.00,,BKN,0.00,VWS V13.01,2013-03-20 12:24:00,
2013-03-20 08:29:00,36.7,7.4,29.12,WSW,241,6.3,11.0,29,0.00,,BKN,0.00,VWS V13.01,2013-03-20 12:29:00,
2013-03-20 08:34:00,36.9,7.6,29.12,West,278,4.9,5.4,29,0.00,,BKN,0.00,VWS V13.01,2013-03-20 12:34:00,
2013-03-20 08:39:00,37.0,7.8,29.12,West,272,4.5,8.7,29,0.00,,BKN,0.00,VWS V13.01,2013-03-20 12:39:00,
2013-03-20 08:44:00,37.2,7.9,29.12,West,277,7.4,7.4,29,0.00,,BKN,0.00,VWS V13.01,2013-03-20 12:44:00,
2013-03-20 08:49:00,37.4,8.1,29.12,SW,233,5.8,11.6,29,0.00,,BKN,0.00,VWS V13.01,2013-03-20 12:49:00,
2013-03-20 08:54:00,37.6,8.2,29.12,WSW,247,6.7,6.7,29,0.00,,BKN,0.00,VWS V13.01,2013-03-20 12:54:00,
2013-03-20 08:59:00,37.9,8.5,29.12,WSW,247,6.7,6.7,29,0.00,,BKN,0.00,VWS V13.01,2013-03-20 12:59:00,
2013-03-20 09:04:00,38.1,8.7,29.12,WSW,247,6.7,6.7,29,0.00,,BKN,0.00,VWS V13.01,2013-03-20 13:04:00,
2013-03-20 09:09:00,38.1,8.7,29.12,WSW,247,6.7,6.7,29,0.00,,BKN,0.00,VWS V13.01,2013-03-20 13:09:00,
2013-03-20 09:14:00,38.1,8.7,29.12,WSW,247,6.7,6.7,29,0.00,,BKN,0.00,VWS V13.01,2013-03-20 13:14:00,
2013-03-20 09:19:00,38.3,8.1,29.12,WSW,247,6.7,6.7,28,0.00,,BKN,0.00,VWS V13.01,2013-03-20 13:19:00,
2013-03-20 09:24:00,38.7,8.4,29.12,WSW,247,6.7,6.7,28,0.00,,BKN,0.00,VWS V13.01,2013-03-20 13:24:00,
2013-03-20 09:29:00,38.7,8.4,29.12,WSW,247,6.7,6.7,28,0.00,,BKN,0.00,VWS V13.01,2013-03-20 13:29:00,
2013-03-20 09:34:00,38.7,8.4,29.12,WSW,247,6.7,6.7,28,0.00,,BKN,0.00,VWS V13.01,2013-03-20 13:34:00,
2013-03-20 09:39:00,38.7,8.4,29.12,WSW,247,6.7,6.7,28,0.00,,BKN,0.00,VWS V13.01,2013-03-20 13:39:00,
2013-03-20 09:44:00,38.8,8.5,29.12,WSW,247,6.7,6.7,28,0.00,,BKN,0.00,VWS V13.01,2013-03-20 13:44:00,
2013-03-20 09:49:00,39.0,9.5,29.12,WSW,247,6.7,6.7,29,0.00,,BKN,0.00,VWS V13.01,2013-03-20 13:49:00,
2013-03-20 09:54:00,39.7,10.1,29.12,WSW,247,6.7,6.7,29,0.00,,BKN,0.00,VWS V13.01,2013-03-20 13:54:00,
2013-03-20 09:59:00,39.4,9.8,29.12,WSW,247,6.7,6.7,29,0.00,,BKN,0.00,VWS V13.01,2013-03-20 13:59:00,
2013-03-20 10:04:00,39.6,9.9,29.12,WSW,247,6.7,6.7,29,0.00,,BKN,0.00,VWS V13.01,2013-03-20 14:04:00,
2013-03-20 10:09:00,39.9,10.2,29.12,WSW,247,6.7,6.7,29,0.00,,BKN,0.00,VWS V13.01,2013-03-20 14:09:00,
2013-03-20 10:14:00,39.9,10.2,29.12,WSW,247,6.7,6.7,29,0.00,,BKN,0.00,VWS V13.01,2013-03-20 14:14:00,
2013-03-20 10:19:00,39.9,9.5,29.12,WSW,247,6.7,6.7,28,0.00,,BKN,0.00,VWS V13.01,2013-03-20 14:19:00,
2013-03-20 10:24:00,40.5,9.9,29.12,WSW,247,6.7,6.7,28,0.00,,BKN,0.00,VWS V13.01,2013-03-20 14:24:00,
2013-03-20 10:29:00,40.8,10.2,29.12,WSW,247,6.7,6.7,28,0.00,,BKN,0.00,VWS V13.01,2013-03-20 14:29:00,
2013-03-20 10:34:00,41.0,10.4,29.12,WSW,247,6.7,6.7,28,0.00,,BKN,0.00,VWS V13.01,2013-03-20 14:34:00,
2013-03-20 10:39:00,41.2,10.6,29.12,WSW,247,6.7,6.7,28,0.00,,BKN,0.00,VWS V13.01,2013-03-20 14:39:00,
2013-03-20 10:44:00,41.2,10.6,29.12,WSW,247,6.7,6.7,28,0.00,,BKN,0.00,VWS V13.01,2013-03-20 14:44:00,
2013-03-20 10:49:00,41.2,10.6,29.12,WSW,247,6.7,6.7,28,0.00,,BKN,0.00,VWS V13.01,2013-03-20 14:49:00,
2013-03-20 10:54:00,41.5,10.9,29.12,WSW,247,6.7,6.7,28,0.00,,BKN,0.00,VWS V13.01,2013-03-20 14:54:00,
2013-03-20 10:59:00,41.7,11.0,29.12,WSW,247,6.7,6.7,28,0.00,,BKN,0.00,VWS V13.01,2013-03-20 14:59:00,
2013-03-20 11:04:00,42.3,11.5,29.12,WSW,247,6.7,6.7,28,0.00,,BKN,0.00,VWS V13.01,2013-03-20 15:04:00,
2013-03-20 11:09:00,42.3,11.5,29.12,WSW,247,6.7,6.7,28,0.00,,BKN,0.00,VWS V13.01,2013-03-20 15:09:00,
2013-03-20 11:14:00,42.1,11.3,29.12,WSW,247,6.7,6.7,28,0.00,,BKN,0.00,VWS V13.01,2013-03-20 15:14:00,
2013-03-20 11:19:00,42.1,11.3,29.12,WSW,247,6.7,6.7,28,0.00,,BKN,0.00,VWS V13.01,2013-03-20 15:19:00,
2013-03-20 11:24:00,42.1,11.3,29.09,WSW,247,6.7,6.7,28,0.00,,BKN,0.00,VWS V13.01,2013-03-20 15:24:00,
2013-03-20 11:29:00,42.4,11.7,29.09,WSW,247,6.7,6.7,28,0.00,,BKN,0.00,VWS V13.01,2013-03-20 15:29:00,
2013-03-20 11:34:00,43.0,12.1,29.09,WSW,247,6.7,6.7,28,0.00,,BKN,0.00,VWS V13.01,2013-03-20 15:34:00,
2013-03-20 11:39:00,42.8,12.0,29.09,WSW,247,6.7,6.7,28,0.00,,BKN,0.00,VWS V13.01,2013-03-20 15:39:00,
2013-03-20 11:44:00,42.8,12.0,29.09,WSW,247,6.7,6.7,28,0.00,,BKN,0.00,VWS V13.01,2013-03-20 15:44:00,
2013-03-20 11:49:00,43.3,12.4,29.09,WSW,247,6.7,6.7,28,0.00,,BKN,0.00,VWS V13.01,2013-03-20 15:49:00,
2013-03-20 11:54:00,43.2,12.3,29.09,WSW,247,6.7,6.7,28,0.00,,BKN,0.00,VWS V13.01,2013-03-20 15:54:00,
2013-03-20 11:59:00,43.5,12.6,29.09,WSW,247,6.7,6.7,28,0.00,,BKN,0.00,VWS V13.01,2013-03-20 15:59:00,
2013-03-20 12:04:00,44.1,13.1,29.09,WSW,247,6.7,6.7,28,0.00,,BKN,0.00,VWS V13.01,2013-03-20 16:04:00,
2013-03-20 12:09:00,44.2,12.4,29.09,WSW,247,6.7,6.7,27,0.00,,BKN,0.00,VWS V13.01,2013-03-20 16:09:00,
2013-03-20 12:14:00,44.6,12.7,29.09,WSW,247,6.7,6.7,27,0.00,,BKN,0.00,VWS V13.01,2013-03-20 16:14:00,
2013-03-20 12:19:00,44.1,12.2,29.09,WSW,247,6.7,6.7,27,0.00,,BKN,0.00,VWS V13.01,2013-03-20 16:19:00,
2013-03-20 12:24:00,44.2,12.4,29.06,WSW,247,6.7,6.7,27,0.00,,BKN,0.00,VWS V13.01,2013-03-20 16:24:00,
2013-03-20 12:29:00,44.1,12.2,29.06,WSW,247,6.7,6.7,27,0.00,,BKN,0.00,VWS V13.01,2013-03-20 16:29:00,
2013-03-20 12:34:00,44.6,12.7,29.06,WSW,247,6.7,6.7,27,0.00,,BKN,0.00,VWS V13.01,2013-03-20 16:34:00,
2013-03-20 12:39:00,44.4,12.6,29.06,WSW,247,6.7,6.7,27,0.00,,BKN,0.00,VWS V13.01,2013-03-20 16:39:00,
2013-03-20 12:44:00,45.5,13.5,29.06,WSW,247,6.7,6.7,27,0.00,,BKN,0.00,VWS V13.01,2013-03-20 16:44:00,
2013-03-20 12:49:00,45.3,13.3,29.06,WSW,247,6.7,6.7,27,0.00,,BKN,0.00,VWS V13.01,2013-03-20 16:49:00,
2013-03-20 12:54:00,45.7,13.6,29.06,WSW,247,6.7,6.7,27,0.00,,BKN,0.00,VWS V13.01,2013-03-20 16:54:00,
2013-03-20 12:59:00,45.7,13.6,29.06,WSW,247,6.7,6.7,27,0.00,,BKN,0.00,VWS V13.01,2013-03-20 16:59:00,
2013-03-20 13:04:00,45.9,13.8,29.06,WSW,247,6.7,6.7,27,0.00,,BKN,0.00,VWS V13.01,2013-03-20 17:04:00,
2013-03-20 13:09:00,46.4,14.2,29.03,WSW,247,6.7,6.7,27,0.00,,BKN,0.00,VWS V13.01,2013-03-20 17:09:00,
2013-03-20 13:14:00,46.4,14.2,29.03,WSW,247,6.7,6.7,27,0.00,,BKN,0.00,VWS V13.01,2013-03-20 17:14:00,
2013-03-20 13:19:00,46.2,14.1,29.03,WSW,247,6.7,6.7,27,0.00,,BKN,0.00,VWS V13.01,2013-03-20 17:19:00,
2013-03-20 13:24:00,46.6,14.4,29.03,WSW,247,6.7,6.7,27,0.00,,BKN,0.00,VWS V13.01,2013-03-20 17:24:00,
2013-03-20 13:29:00,46.9,14.7,29.03,WSW,247,6.7,6.7,27,0.00,,BKN,0.00,VWS V13.01,2013-03-20 17:29:00,
2013-03-20 13:34:00,46.8,14.6,29.03,WSW,247,6.7,6.7,27,0.00,,BKN,0.00,VWS V13.01,2013-03-20 17:34:00,
2013-03-20 13:39:00,46.6,14.4,29.03,WSW,247,6.7,6.7,27,0.00,,BKN,0.00,VWS V13.01,2013-03-20 17:39:00,
2013-03-20 13:44:00,46.9,14.7,29.03,WSW,247,6.7,6.7,27,0.00,,BKN,0.00,VWS V13.01,2013-03-20 17:44:00,
2013-03-20 13:49:00,46.8,14.6,29.03,WSW,247,6.7,6.7,27,0.00,,BKN,0.00,VWS V13.01,2013-03-20 17:49:00,
2013-03-20 13:54:00,46.6,14.4,29.00,WSW,247,6.7,6.7,27,0.00,,BKN,0.00,VWS V13.01,2013-03-20 17:54:00,
2013-03-20 13:59:00,47.3,14.2,29.00,WSW,247,6.7,6.7,26,0.00,,BKN,0.00,VWS V13.01,2013-03-20 17:59:00,
2013-03-20 14:04:00,47.3,15.0,29.00,WSW,247,6.7,6.7,27,0.00,,BKN,0.00,VWS V13.01,2013-03-20 18:04:00,
2013-03-20 14:09:00,48.2,14.9,29.00,WSW,247,6.7,6.7,26,0.00,,BKN,0.00,VWS V13.01,2013-03-20 18:09:00,
2013-03-20 14:14:00,48.2,13.1,29.00,WSW,247,6.7,6.7,24,0.00,,BKN,0.00,VWS V13.01,2013-03-20 18:14:00,
2013-03-20 14:19:00,48.0,13.0,29.00,WSW,247,6.7,6.7,24,0.00,,BKN,0.00,VWS V13.01,2013-03-20 18:19:00,
2013-03-20 14:24:00,47.3,12.4,29.00,WSW,247,6.7,6.7,24,0.00,,BKN,0.00,VWS V13.01,2013-03-20 18:24:00,
2013-03-20 14:29:00,47.3,12.4,29.00,WSW,247,6.7,6.7,24,0.00,,BKN,0.00,VWS V13.01,2013-03-20 18:29:00,
2013-03-20 14:34:00,47.8,14.6,29.00,WSW,247,6.7,6.7,26,0.00,,BKN,0.00,VWS V13.01,2013-03-20 18:34:00,
2013-03-20 14:39:00,48.0,14.8,29.00,WSW,247,6.7,6.7,26,0.00,,BKN,0.00,VWS V13.01,2013-03-20 18:39:00,
2013-03-20 14:44:00,48.9,15.6,29.00,WSW,247,6.7,6.7,26,0.00,,BKN,0.00,VWS V13.01,2013-03-20 18:44:00,
2013-03-20 14:49:00,49.6,16.2,28.97,WSW,247,6.7,6.7,26,0.00,,BKN,0.00,VWS V13.01,2013-03-20 18:49:00,
2013-03-20 14:54:00,49.6,14.3,28.97,WSW,247,6.7,6.7,24,0.00,,BKN,0.00,VWS V13.01,2013-03-20 18:54:00,
2013-03-20 14:59:00,49.6,14.3,28.97,WSW,247,6.7,6.7,24,0.00,,BKN,0.00,VWS V13.01,2013-03-20 18:59:00,
2013-03-20 15:04:00,49.1,13.9,28.97,WSW,247,6.7,6.7,24,0.00,,BKN,0.00,VWS V13.01,2013-03-20 19:04:00,
2013-03-20 15:09:00,48.7,13.6,28.97,WSW,247,6.7,6.7,24,0.00,,BKN,0.00,VWS V13.01,2013-03-20 19:09:00,
2013-03-20 15:14:00,48.7,13.6,28.97,WSW,247,6.7,6.7,24,0.00,,BKN,0.00,VWS V13.01,2013-03-20 19:14:00,
2013-03-20 15:19:00,48.9,13.7,28.97,WSW,247,6.7,6.7,24,0.00,,BKN,0.00,VWS V13.01,2013-03-20 19:19:00,
2013-03-20 15:24:00,48.9,13.7,28.97,WSW,247,6.7,6.7,24,0.00,,BKN,0.00,VWS V13.01,2013-03-20 19:24:00,
2013-03-20 15:29:00,48.9,13.7,28.97,WSW,247,6.7,6.7,24,0.00,,BKN,0.00,VWS V13.01,2013-03-20 19:29:00,
2013-03-20 15:34:00,49.6,14.3,28.97,WSW,247,6.7,6.7,24,0.00,,BKN,0.00,VWS V13.01,2013-03-20 19:34:00,
2013-03-20 15:39:00,50.5,15.1,28.94,WSW,247,6.7,6.7,24,0.00,,BKN,0.00,VWS V13.01,2013-03-20 19:39:00,
2013-03-20 15:44:00,49.5,14.2,28.94,WSW,247,6.7,6.7,24,0.00,,BKN,0.00,VWS V13.01,2013-03-20 19:44:00,
2013-03-20 15:49:00,49.5,14.2,28.94,WSW,247,6.7,6.7,24,0.00,,BKN,0.00,VWS V13.01,2013-03-20 19:49:00,
2013-03-20 15:54:00,49.5,14.2,28.94,WSW,247,6.7,6.7,24,0.00,,BKN,0.00,VWS V13.01,2013-03-20 19:54:00,
2013-03-20 15:59:00,49.3,14.0,28.94,WSW,247,6.7,6.7,24,0.00,,BKN,0.00,VWS V13.01,2013-03-20 19:59:00,
2013-03-20 16:04:00,49.3,14.0,28.94,WSW,247,6.7,6.7,24,0.00,,BKN,0.00,VWS V13.01,2013-03-20 20:04:00,
2013-03-20 16:09:00,49.1,13.9,28.94,WSW,247,6.7,6.7,24,0.00,,BKN,0.00,VWS V13.01,2013-03-20 20:09:00,
2013-03-20 16:14:00,48.9,13.7,28.94,WSW,247,6.7,6.7,24,0.00,,BKN,0.00,VWS V13.01,2013-03-20 20:14:00,
2013-03-20 16:19:00,48.7,13.6,28.94,WSW,247,6.7,6.7,24,0.00,,BKN,0.00,VWS V13.01,2013-03-20 20:19:00,
2013-03-20 16:24:00,48.9,13.7,28.94,WSW,247,6.7,6.7,24,0.00,,BKN,0.00,VWS V13.01,2013-03-20 20:24:00,
2013-03-20 16:29:00,49.1,13.9,28.94,WSW,247,6.7,6.7,24,0.00,,BKN,0.00,VWS V13.01,2013-03-20 20:29:00,
2013-03-20 16:34:00,48.9,13.7,28.94,WSW,247,6.7,6.7,24,0.00,,BKN,0.00,VWS V13.01,2013-03-20 20:34:00,
2013-03-20 16:39:00,48.9,13.7,28.94,WSW,247,6.7,6.7,24,0.00,,BKN,0.00,VWS V13.01,2013-03-20 20:39:00,
2013-03-20 16:44:00,48.9,13.7,28.91,WSW,247,6.7,6.7,24,0.00,,BKN,0.00,VWS V13.01,2013-03-20 20:44:00,
2013-03-20 16:49:00,48.9,13.7,28.91,WSW,247,6.7,6.7,24,0.00,,BKN,0.00,VWS V13.01,2013-03-20 20:49:00,
2013-03-20 16:54:00,48.7,13.6,28.91,WSW,247,6.7,6.7,24,0.00,,BKN,0.00,VWS V13.01,2013-03-20 20:54:00,
2013-03-20 16:59:00,48.6,13.4,28.91,WSW,247,6.7,6.7,24,0.00,,BKN,0.00,VWS V13.01,2013-03-20 20:59:00,
2013-03-20 17:04:00,48.6,13.4,28.91,WSW,247,6.7,6.7,24,0.00,,BKN,0.00,VWS V13.01,2013-03-20 21:04:00,
2013-03-20 17:09:00,48.7,13.6,28.91,WSW,247,6.7,6.7,24,0.00,,BKN,0.00,VWS V13.01,2013-03-20 21:09:00,
2013-03-20 17:14:00,48.7,13.6,28.91,WSW,247,6.7,6.7,24,0.00,,BKN,0.00,VWS V13.01,2013-03-20 21:14:00,
2013-03-20 17:19:00,48.7,13.6,28.91,WSW,247,6.7,6.7,24,0.00,,BKN,0.00,VWS V13.01,2013-03-20 21:19:00,
2013-03-20 17:24:00,48.7,13.6,28.91,WSW,247,6.7,6.7,24,0.00,,BKN,0.00,VWS V13.01,2013-03-20 21:24:00,
2013-03-20 17:29:00,48.7,13.6,28.91,WSW,247,6.7,6.7,24,0.00,,BKN,0.00,VWS V13.01,2013-03-20 21:29:00,
2013-03-20 17:34:00,48.7,13.6,28.91,WSW,247,6.7,6.7,24,0.00,,BKN,0.00,VWS V13.01,2013-03-20 21:34:00,
2013-03-20 17:39:00,48.7,13.6,28.91,WSW,247,6.7,6.7,24,0.00,,BKN,0.00,VWS V13.01,2013-03-20 21:39:00,
2013-03-20 17:44:00,48.6,13.4,28.91,WSW,247,6.7,6.7,24,0.00,,BKN,0.00,VWS V13.01,2013-03-20 21:44:00,
2013-03-20 17:49:00,48.6,13.4,28.91,WSW,247,6.7,6.7,24,0.00,,BKN,0.00,VWS V13.01,2013-03-20 21:49:00,
2013-03-20 17:54:00,48.2,13.1,28.91,WSW,247,6.7,6.7,24,0.00,,BKN,0.00,VWS V13.01,2013-03-20 21:54:00,
2013-03-20 17:59:00,48.0,13.0,28.91,WSW,247,6.7,6.7,24,0.00,,BKN,0.00,VWS V13.01,2013-03-20 21:59:00,
2013-03-20 18:04:00,48.0,13.0,28.91,WSW,247,6.7,6.7,24,0.00,,BKN,0.00,VWS V13.01,2013-03-20 22:04:00,
2013-03-20 18:09:00,48.0,13.0,28.91,WSW,247,6.7,6.7,24,0.00,,BKN,0.00,VWS V13.01,2013-03-20 22:09:00,
2013-03-20 18:14:00,47.8,12.8,28.91,WSW,247,6.7,6.7,24,0.00,,BKN,0.00,VWS V13.01,2013-03-20 22:14:00,
2013-03-20 18:18:00,47.8,12.8,28.91,WSW,247,6.7,6.7,24,0.00,,BKN,0.00,VWS V13.01,2013-03-20 22:18:00,
2013-03-20 18:23:00,47.8,12.8,28.91,WSW,247,6.7,6.7,24,0.00,,BKN,0.00,VWS V13.01,2013-03-20 22:23:00,
2013-03-20 18:28:00,47.8,12.8,28.91,WSW,247,6.7,6.7,24,0.00,,BKN,0.00,VWS V13.01,2013-03-20 22:28:00,
2013-03-20 18:33:00,47.5,12.5,28.91,WSW,247,6.7,6.7,24,0.00,,BKN,0.00,VWS V13.01,2013-03-20 22:33:00,
2013-03-20 18:38:00,47.5,12.5,28.91,WSW,247,6.7,6.7,24,0.00,,BKN,0.00,VWS V13.01,2013-03-20 22:38:00,
2013-03-20 18:43:00,47.1,14.9,28.91,WSW,247,6.7,6.7,27,0.00,,BKN,0.00,VWS V13.01,2013-03-20 22:43:00,
2013-03-20 18:48:00,47.1,14.9,28.91,WSW,247,6.7,6.7,27,0.00,,BKN,0.00,VWS V13.01,2013-03-20 22:48:00,
2013-03-20 18:53:00,47.1,14.9,28.91,WSW,247,6.7,6.7,27,0.00,,BKN,0.00,VWS V13.01,2013-03-20 22:53:00,
2013-03-20 18:58:00,47.1,14.9,28.91,WSW,247,6.7,6.7,27,0.00,,BKN,0.00,VWS V13.01,2013-03-20 22:58:00,
2013-03-20 19:03:00,46.8,14.6,28.91,WSW,247,6.7,6.7,27,0.00,,BKN,0.00,VWS V13.01,2013-03-20 23:03:00,
2013-03-20 19:08:00,46.8,14.6,28.91,WSW,247,6.7,6.7,27,0.00,,BKN,0.00,VWS V13.01,2013-03-20 23:08:00,
2013-03-20 19:13:00,46.8,14.6,28.91,WSW,247,6.7,6.7,27,0.00,,BKN,0.00,VWS V13.01,2013-03-20 23:13:00,
2013-03-20 19:18:00,46.8,14.6,28.91,WSW,247,6.7,6.7,27,0.00,,BKN,0.00,VWS V13.01,2013-03-20 23:18:00,
2013-03-20 19:23:00,46.8,14.6,28.91,WSW,247,6.7,6.7,27,0.00,,BKN,0.00,VWS V13.01,2013-03-20 23:23:00,
2013-03-20 19:28:00,46.8,14.6,28.91,WSW,247,6.7,6.7,27,0.00,,BKN,0.00,VWS V13.01,2013-03-20 23:28:00,
2013-03-20 19:33:00,46.8,14.6,28.91,WSW,247,6.7,6.7,27,0.00,,BKN,0.00,VWS V13.01,2013-03-20 23:33:00,
2013-03-20 19:39:00,45.5,13.5,28.91,WSW,247,6.7,6.7,27,0.00,,BKN,0.00,VWS V13.01,2013-03-20 23:39:00,
2013-03-20 19:43:00,45.5,13.5,28.91,WSW,247,6.7,6.7,27,0.00,,BKN,0.00,VWS V13.01,2013-03-20 23:43:00,
2013-03-20 19:49:00,45.5,13.5,28.91,WSW,247,6.7,6.7,27,0.00,,BKN,0.00,VWS V13.01,2013-03-20 23:49:00,
2013-03-20 19:53:00,45.5,13.5,28.91,WSW,247,6.7,6.7,27,0.00,,BKN,0.00,VWS V13.01,2013-03-20 23:53:00,
2013-03-20 19:58:00,45.5,14.3,28.91,WSW,247,6.7,6.7,28,0.00,,BKN,0.00,VWS V13.01,2013-03-20 23:58:00,
2013-03-20 20:03:00,45.5,14.3,28.91,WSW,247,6.7,6.7,28,0.00,,BKN,0.00,VWS V13.01,2013-03-21 00:03:00,
2013-03-20 20:08:00,45.0,13.8,28.91,WSW,247,6.7,6.7,28,0.00,,BKN,0.00,VWS V13.01,2013-03-21 00:08:00,
2013-03-20 20:13:00,44.8,13.7,28.91,WSW,247,6.7,6.7,28,0.00,,BKN,0.00,VWS V13.01,2013-03-21 00:13:00,
2013-03-20 20:18:00,44.8,13.7,28.91,WSW,247,6.7,6.7,28,0.00,,BKN,0.00,VWS V13.01,2013-03-21 00:18:00,
2013-03-20 20:23:00,44.8,13.7,28.91,WSW,247,6.7,6.7,28,0.00,,BKN,0.00,VWS V13.01,2013-03-21 00:23:00,
2013-03-20 20:28:00,44.2,13.2,28.91,WSW,247,6.7,6.7,28,0.00,,BKN,0.00,VWS V13.01,2013-03-21 00:28:00,
2013-03-20 20:33:00,44.2,13.2,28.91,WSW,247,6.7,6.7,28,0.00,,BKN,0.00,VWS V13.01,2013-03-21 00:33:00,
2013-03-20 20:38:00,44.2,13.2,28.91,WSW,247,6.7,6.7,28,0.00,,BKN,0.00,VWS V13.01,2013-03-21 00:38:00,
2013-03-20 20:43:00,44.2,13.2,28.91,WSW,246,6.3,7.4,28,0.00,,BKN,0.00,VWS V13.01,2013-03-21 00:43:00,
2013-03-20 20:48:00,44.2,13.2,28.91,WNW,299,11.2,11.2,28,0.00,,BKN,0.00,VWS V13.01,2013-03-21 00:48:00,
2013-03-20 20:53:00,43.2,13.1,28.91,NW,306,4.0,7.4,29,0.00,,BKN,0.00,VWS V13.01,2013-03-21 00:53:00,
2013-03-20 20:58:00,42.8,12.8,28.91,WNW,291,11.6,11.6,29,0.00,,BKN,0.00,VWS V13.01,2013-03-21 00:58:00,
2013-03-20 21:03:00,42.1,12.9,28.91,WNW,294,6.9,7.8,30,0.00,,BKN,0.00,VWS V13.01,2013-03-21 01:03:00,
2013-03-20 21:08:00,41.7,13.3,28.94,NW,308,3.1,5.8,31,0.00,,BKN,0.00,VWS V13.01,2013-03-21 01:08:00,
2013-03-20 21:13:00,41.5,13.9,28.94,WNW,299,5.4,7.4,32,0.00,,BKN,0.00,VWS V13.01,2013-03-21 01:13:00,
2013-03-20 21:18:00,41.5,13.9,28.94,NW,320,3.1,6.3,32,0.00,,BKN,0.00,VWS V13.01,2013-03-21 01:18:00,
2013-03-20 21:23:00,41.4,14.4,28.94,NW,304,3.6,3.6,33,0.00,,BKN,0.00,VWS V13.01,2013-03-21 01:23:00,
2013-03-20 21:28:00,41.4,14.4,28.94,WNW,303,0.0,4.0,33,0.00,,BKN,0.00,VWS V13.01,2013-03-21 01:28:00,
2013-03-20 21:33:00,41.2,15.0,28.94,WNW,290,4.9,5.8,34,0.00,,BKN,0.00,VWS V13.01,2013-03-21 01:33:00,
2013-03-20 21:38:00,41.2,14.3,28.94,WNW,290,0.0,0.0,33,0.00,,BKN,0.00,VWS V13.01,2013-03-21 01:38:00,
2013-03-20 21:43:00,41.2,15.0,28.94,WNW,290,3.6,4.5,34,0.00,,BKN,0.00,VWS V13.01,2013-03-21 01:43:00,
2013-03-20 21:48:00,41.2,15.0,28.94,North,351,5.8,5.8,34,0.00,,BKN,0.00,VWS V13.01,2013-03-21 01:48:00,
2013-03-20 21:53:00,40.8,15.3,28.94,WNW,300,5.8,5.8,35,0.00,,BKN,0.00,VWS V13.01,2013-03-21 01:53:00,
2013-03-20 21:58:00,40.6,16.4,28.94,West,261,9.2,9.2,37,0.00,,BKN,0.00,VWS V13.01,2013-03-21 01:58:00,
2013-03-20 22:03:00,40.3,17.3,28.94,NW,304,7.8,12.5,39,0.00,,BKN,0.00,VWS V13.01,2013-03-21 02:03:00,
2013-03-20 22:08:00,38.8,17.7,28.94,NNW,335,7.4,10.5,42,0.00,,BKN,0.00,VWS V13.01,2013-03-21 02:08:00,
2013-03-20 22:13:00,37.6,18.7,28.94,NW,319,5.4,8.7,46,0.00,,BKN,0.00,VWS V13.01,2013-03-21 02:13:00,
2013-03-20 22:18:00,37.0,19.7,28.94,WNW,300,7.4,10.1,49,0.00,,BKN,0.00,VWS V13.01,2013-03-21 02:18:00,
2013-03-20 22:23:00,36.5,21.5,28.97,NNW,337,6.9,12.1,54,0.00,,BKN,0.00,VWS V13.01,2013-03-21 02:23:00,
2013-03-20 22:28:00,36.0,21.4,28.97,WNW,289,7.4,10.1,55,0.00,,BKN,0.00,VWS V13.01,2013-03-21 02:28:00,
2013-03-20 22:33:00,35.6,21.0,28.97,NW,312,4.5,8.3,55,0.00,,BKN,0.00,VWS V13.01,2013-03-21 02:33:00,
2013-03-20 22:38:00,35.4,20.9,28.97,NNW,328,4.9,9.2,55,0.00,,BKN,0.00,VWS V13.01,2013-03-21 02:38:00,
2013-03-20 22:43:00,35.2,20.7,28.97,NNW,331,5.8,9.2,55,0.00,,BKN,0.00,VWS V13.01,2013-03-21 02:43:00,
2013-03-20 22:48:00,35.1,20.5,28.97,NW,306,5.4,5.4,55,0.00,,BKN,0.00,VWS V13.01,2013-03-21 02:48:00,
2013-03-20 22:53:00,35.1,21.8,28.97,NNW,331,3.1,4.9,58,0.00,,BKN,0.00,VWS V13.01,2013-03-21 02:53:00,
2013-03-20 22:58:00,35.1,21.8,28.97,NNE,12,4.0,4.9,58,0.00,,BKN,0.00,VWS V13.01,2013-03-21 02:58:00,
2013-03-20 23:03:00,34.9,20.8,28.97,North,0,3.6,4.5,56,0.00,,BKN,0.00,VWS V13.01,2013-03-21 03:03:00,
2013-03-20 23:08:00,34.7,20.6,28.97,North,356,6.7,6.9,56,0.00,,BKN,0.00,VWS V13.01,2013-03-21 03:08:00,
2013-03-20 23:13:00,34.5,20.9,28.97,NW,315,0.0,4.5,57,0.00,,BKN,0.00,VWS V13.01,2013-03-21 03:13:00,
2013-03-20 23:18:00,34.3,20.7,28.97,NNW,332,0.0,0.0,57,0.00,,BKN,0.00,VWS V13.01,2013-03-21 03:18:00,
2013-03-20 23:23:00,34.3,20.3,28.97,North,351,4.0,4.0,56,0.00,,BKN,0.00,VWS V13.01,2013-03-21 03:23:00,
2013-03-20 23:28:00,34.2,20.1,28.97,North,351,4.5,4.5,56,0.00,,BKN,0.00,VWS V13.01,2013-03-21 03:28:00,
2013-03-20 23:33:00,34.2,20.1,28.97,NW,304,0.0,0.0,56,0.00,,BKN,0.00,VWS V13.01,2013-03-21 03:33:00,
2013-03-20 23:38:00,34.0,19.5,28.97,NW,304,3.6,4.5,55,0.00,,BKN,0.00,VWS V13.01,2013-03-21 03:38:00,
2013-03-20 23:43:00,34.0,19.5,28.97,NW,304,0.0,2.7,55,0.00,,BKN,0.00,VWS V13.01,2013-03-21 03:43:00,
2013-03-20 23:48:00,34.0,19.1,28.97,NW,304,0.0,3.6,54,0.00,,BKN,0.00,VWS V13.01,2013-03-21 03:48:00,
2013-03-20 23:53:00,34.0,19.1,28.97,NW,304,0.0,5.4,54,0.00,,BKN,0.00,VWS V13.01,2013-03-21 03:53:00,
2013-03-20 23:58:00,34.0,19.1,28.97,WSW,248,3.1,4.0,54,0.00,,BKN,0.00,VWS V13.01,2013-03-21 03:58:00,